sensor_id;sensor_type;location;lat;lon;timestamp;P1;durP1;ratioP1;P2;durP2;ratioP2
40745;SDS011;26454;51.164;4.488;2023-01-25T00:02:18;114.72;;;65.57;;
40745;SDS011;26454;51.164;4.488;2023-01-25T00:04:44;111.60;;;62.25;;
40745;SDS011;26454;51.164;4.488;2023-01-25T00:07:10;115.32;;;64.32;;
40745;SDS011;26454;51.164;4.488;2023-01-25T00:09:36;106.55;;;59.63;;
40745;SDS011;26454;51.164;4.488;2023-01-25T00:12:02;114.75;;;62.28;;
40745;SDS011;26454;51.164;4.488;2023-01-25T00:14:28;107.85;;;62.47;;
40745;SDS011;26454;51.164;4.488;2023-01-25T00:16:54;107.57;;;61.50;;
40745;SDS011;26454;51.164;4.488;2023-01-25T00:19:20;107.40;;;59.40;;
40745;SDS011;26454;51.164;4.488;2023-01-25T00:21:48;106.90;;;58.80;;
40745;SDS011;26454;51.164;4.488;2023-01-25T00:24:14;112.72;;;61.58;;
40745;SDS011;26454;51.164;4.488;2023-01-25T00:26:40;101.60;;;59.53;;
40745;SDS011;26454;51.164;4.488;2023-01-25T00:29:10;109.20;;;63.20;;
40745;SDS011;26454;51.164;4.488;2023-01-25T00:31:40;104.50;;;63.17;;
40745;SDS011;26454;51.164;4.488;2023-01-25T00:36:46;107.95;;;65.25;;
40745;SDS011;26454;51.164;4.488;2023-01-25T00:39:14;108.28;;;61.50;;
40745;SDS011;26454;51.164;4.488;2023-01-25T00:41:40;101.15;;;59.65;;
40745;SDS011;26454;51.164;4.488;2023-01-25T00:44:06;111.45;;;61.55;;
40745;SDS011;26454;51.164;4.488;2023-01-25T00:46:32;109.85;;;62.13;;
40745;SDS011;26454;51.164;4.488;2023-01-25T00:48:58;103.15;;;61.10;;
40745;SDS011;26454;51.164;4.488;2023-01-25T00:51:24;104.72;;;60.63;;
40745;SDS011;26454;51.164;4.488;2023-01-25T00:53:51;95.93;;;54.78;;
40745;SDS011;26454;51.164;4.488;2023-01-25T00:56:17;103.63;;;61.22;;
40745;SDS011;26454;51.164;4.488;2023-01-25T00:58:43;101.43;;;58.20;;
40745;SDS011;26454;51.164;4.488;2023-01-25T01:01:10;97.95;;;58.75;;
40745;SDS011;26454;51.164;4.488;2023-01-25T01:03:37;96.05;;;55.65;;
40745;SDS011;26454;51.164;4.488;2023-01-25T01:06:04;93.68;;;56.58;;
40745;SDS011;26454;51.164;4.488;2023-01-25T01:08:32;104.13;;;61.38;;
40745;SDS011;26454;51.164;4.488;2023-01-25T01:11:00;100.88;;;61.17;;
40745;SDS011;26454;51.164;4.488;2023-01-25T01:13:26;112.35;;;62.78;;
40745;SDS011;26454;51.164;4.488;2023-01-25T01:15:53;101.70;;;60.03;;
40745;SDS011;26454;51.164;4.488;2023-01-25T01:18:19;98.78;;;60.75;;
40745;SDS011;26454;51.164;4.488;2023-01-25T01:20:48;100.35;;;58.03;;
40745;SDS011;26454;51.164;4.488;2023-01-25T01:23:14;97.85;;;56.80;;
40745;SDS011;26454;51.164;4.488;2023-01-25T01:25:40;99.90;;;57.05;;
40745;SDS011;26454;51.164;4.488;2023-01-25T01:28:06;100.25;;;60.00;;
40745;SDS011;26454;51.164;4.488;2023-01-25T01:30:32;96.05;;;55.97;;
40745;SDS011;26454;51.164;4.488;2023-01-25T01:32:58;103.50;;;58.72;;
40745;SDS011;26454;51.164;4.488;2023-01-25T01:35:24;94.13;;;55.55;;
40745;SDS011;26454;51.164;4.488;2023-01-25T01:37:50;96.10;;;56.65;;
40745;SDS011;26454;51.164;4.488;2023-01-25T01:40:17;102.45;;;60.33;;
40745;SDS011;26454;51.164;4.488;2023-01-25T01:47:56;99.63;;;58.22;;
40745;SDS011;26454;51.164;4.488;2023-01-25T01:50:22;98.55;;;56.95;;
40745;SDS011;26454;51.164;4.488;2023-01-25T01:52:49;101.15;;;58.35;;
40745;SDS011;26454;51.164;4.488;2023-01-25T01:55:17;100.07;;;58.33;;
40745;SDS011;26454;51.164;4.488;2023-01-25T01:57:47;105.28;;;60.95;;
40745;SDS011;26454;51.164;4.488;2023-01-25T02:00:16;98.70;;;55.75;;
40745;SDS011;26454;51.164;4.488;2023-01-25T02:02:43;97.93;;;57.85;;
40745;SDS011;26454;51.164;4.488;2023-01-25T02:05:16;94.20;;;56.10;;
40745;SDS011;26454;51.164;4.488;2023-01-25T02:07:44;101.63;;;58.45;;
40745;SDS011;26454;51.164;4.488;2023-01-25T02:10:11;102.95;;;59.22;;
40745;SDS011;26454;51.164;4.488;2023-01-25T02:12:37;103.78;;;59.25;;
40745;SDS011;26454;51.164;4.488;2023-01-25T02:15:04;102.55;;;60.13;;
40745;SDS011;26454;51.164;4.488;2023-01-25T02:17:31;93.80;;;54.50;;
40745;SDS011;26454;51.164;4.488;2023-01-25T02:20:10;102.32;;;57.75;;
40745;SDS011;26454;51.164;4.488;2023-01-25T02:22:40;96.03;;;56.45;;
40745;SDS011;26454;51.164;4.488;2023-01-25T02:25:10;96.00;;;56.25;;
40745;SDS011;26454;51.164;4.488;2023-01-25T02:27:38;92.72;;;55.85;;
40745;SDS011;26454;51.164;4.488;2023-01-25T02:30:06;102.13;;;58.92;;
40745;SDS011;26454;51.164;4.488;2023-01-25T02:32:32;103.88;;;62.92;;
40745;SDS011;26454;51.164;4.488;2023-01-25T02:34:58;112.25;;;62.08;;
40745;SDS011;26454;51.164;4.488;2023-01-25T02:37:24;105.75;;;58.20;;
40745;SDS011;26454;51.164;4.488;2023-01-25T02:39:50;107.47;;;59.60;;
40745;SDS011;26454;51.164;4.488;2023-01-25T02:42:17;101.60;;;57.17;;
40745;SDS011;26454;51.164;4.488;2023-01-25T02:44:43;108.95;;;63.38;;
40745;SDS011;26454;51.164;4.488;2023-01-25T02:47:09;114.45;;;61.83;;
40745;SDS011;26454;51.164;4.488;2023-01-25T02:49:35;107.40;;;59.30;;
40745;SDS011;26454;51.164;4.488;2023-01-25T02:52:02;112.95;;;64.13;;
40745;SDS011;26454;51.164;4.488;2023-01-25T02:54:28;106.93;;;60.30;;
40745;SDS011;26454;51.164;4.488;2023-01-25T02:56:54;113.28;;;63.13;;
40745;SDS011;26454;51.164;4.488;2023-01-25T02:59:21;105.75;;;58.55;;
40745;SDS011;26454;51.164;4.488;2023-01-25T03:01:47;105.18;;;59.60;;
40745;SDS011;26454;51.164;4.488;2023-01-25T03:04:14;114.20;;;61.88;;
40745;SDS011;26454;51.164;4.488;2023-01-25T03:06:40;108.03;;;59.20;;
40745;SDS011;26454;51.164;4.488;2023-01-25T03:09:07;105.72;;;59.75;;
40745;SDS011;26454;51.164;4.488;2023-01-25T03:11:33;106.80;;;60.83;;
40745;SDS011;26454;51.164;4.488;2023-01-25T03:13:59;102.82;;;58.90;;
40745;SDS011;26454;51.164;4.488;2023-01-25T03:16:25;109.93;;;61.92;;
40745;SDS011;26454;51.164;4.488;2023-01-25T03:18:52;113.85;;;60.95;;
40745;SDS011;26454;51.164;4.488;2023-01-25T03:21:19;105.47;;;60.55;;
40745;SDS011;26454;51.164;4.488;2023-01-25T03:23:45;114.00;;;61.15;;
40745;SDS011;26454;51.164;4.488;2023-01-25T03:26:14;110.88;;;60.58;;
40745;SDS011;26454;51.164;4.488;2023-01-25T03:28:40;115.22;;;62.60;;
40745;SDS011;26454;51.164;4.488;2023-01-25T03:31:07;105.70;;;58.70;;
40745;SDS011;26454;51.164;4.488;2023-01-25T03:33:34;120.97;;;64.60;;
40745;SDS011;26454;51.164;4.488;2023-01-25T03:36:00;122.03;;;64.68;;
40745;SDS011;26454;51.164;4.488;2023-01-25T03:38:26;108.93;;;58.30;;
40745;SDS011;26454;51.164;4.488;2023-01-25T03:40:53;115.53;;;63.30;;
40745;SDS011;26454;51.164;4.488;2023-01-25T03:43:19;118.00;;;64.72;;
40745;SDS011;26454;51.164;4.488;2023-01-25T03:45:45;106.97;;;59.25;;
40745;SDS011;26454;51.164;4.488;2023-01-25T03:48:16;114.03;;;62.30;;
40745;SDS011;26454;51.164;4.488;2023-01-25T03:50:42;111.03;;;62.40;;
40745;SDS011;26454;51.164;4.488;2023-01-25T03:53:08;113.88;;;62.10;;
40745;SDS011;26454;51.164;4.488;2023-01-25T03:55:44;111.65;;;64.38;;
40745;SDS011;26454;51.164;4.488;2023-01-25T03:58:10;117.03;;;64.75;;
40745;SDS011;26454;51.164;4.488;2023-01-25T04:00:36;109.93;;;59.95;;
40745;SDS011;26454;51.164;4.488;2023-01-25T04:03:02;109.38;;;59.33;;
40745;SDS011;26454;51.164;4.488;2023-01-25T04:05:28;109.40;;;61.92;;
40745;SDS011;26454;51.164;4.488;2023-01-25T04:07:54;107.55;;;58.90;;
40745;SDS011;26454;51.164;4.488;2023-01-25T04:10:20;118.75;;;62.80;;
40745;SDS011;26454;51.164;4.488;2023-01-25T04:12:46;114.30;;;60.58;;
40745;SDS011;26454;51.164;4.488;2023-01-25T04:15:12;107.57;;;59.83;;
40745;SDS011;26454;51.164;4.488;2023-01-25T04:17:38;117.65;;;64.57;;
40745;SDS011;26454;51.164;4.488;2023-01-25T04:20:05;106.30;;;60.05;;
40745;SDS011;26454;51.164;4.488;2023-01-25T04:22:31;115.68;;;58.70;;
40745;SDS011;26454;51.164;4.488;2023-01-25T04:24:57;114.07;;;63.00;;
40745;SDS011;26454;51.164;4.488;2023-01-25T04:27:23;112.63;;;62.30;;
40745;SDS011;26454;51.164;4.488;2023-01-25T04:29:49;112.03;;;62.78;;
40745;SDS011;26454;51.164;4.488;2023-01-25T04:32:15;111.63;;;62.10;;
40745;SDS011;26454;51.164;4.488;2023-01-25T04:34:41;104.55;;;57.45;;
40745;SDS011;26454;51.164;4.488;2023-01-25T04:37:07;103.95;;;57.47;;
40745;SDS011;26454;51.164;4.488;2023-01-25T04:39:33;110.22;;;60.88;;
40745;SDS011;26454;51.164;4.488;2023-01-25T04:41:59;117.00;;;64.07;;
40745;SDS011;26454;51.164;4.488;2023-01-25T04:44:25;116.75;;;65.10;;
40745;SDS011;26454;51.164;4.488;2023-01-25T04:46:51;116.35;;;63.38;;
40745;SDS011;26454;51.164;4.488;2023-01-25T04:49:17;112.28;;;60.10;;
40745;SDS011;26454;51.164;4.488;2023-01-25T04:51:43;110.65;;;62.20;;
40745;SDS011;26454;51.164;4.488;2023-01-25T04:54:09;99.00;;;56.80;;
40745;SDS011;26454;51.164;4.488;2023-01-25T04:56:35;108.88;;;61.90;;
40745;SDS011;26454;51.164;4.488;2023-01-25T04:59:01;109.53;;;60.38;;
40745;SDS011;26454;51.164;4.488;2023-01-25T05:01:27;112.35;;;60.95;;
40745;SDS011;26454;51.164;4.488;2023-01-25T05:03:54;118.35;;;61.38;;
40745;SDS011;26454;51.164;4.488;2023-01-25T05:06:20;113.30;;;60.08;;
40745;SDS011;26454;51.164;4.488;2023-01-25T05:08:46;112.00;;;62.92;;
40745;SDS011;26454;51.164;4.488;2023-01-25T05:11:12;112.07;;;62.08;;
40745;SDS011;26454;51.164;4.488;2023-01-25T05:13:38;118.80;;;63.67;;
40745;SDS011;26454;51.164;4.488;2023-01-25T05:16:04;110.57;;;63.38;;
40745;SDS011;26454;51.164;4.488;2023-01-25T05:18:30;105.30;;;56.78;;
40745;SDS011;26454;51.164;4.488;2023-01-25T05:20:56;115.25;;;63.47;;
40745;SDS011;26454;51.164;4.488;2023-01-25T05:23:22;111.03;;;62.13;;
40745;SDS011;26454;51.164;4.488;2023-01-25T05:25:48;114.40;;;64.28;;
40745;SDS011;26454;51.164;4.488;2023-01-25T05:28:24;116.18;;;63.35;;
40745;SDS011;26454;51.164;4.488;2023-01-25T05:30:50;109.82;;;62.45;;
40745;SDS011;26454;51.164;4.488;2023-01-25T05:33:16;110.10;;;59.55;;
40745;SDS011;26454;51.164;4.488;2023-01-25T05:35:42;107.25;;;59.72;;
40745;SDS011;26454;51.164;4.488;2023-01-25T05:38:08;114.30;;;63.17;;
40745;SDS011;26454;51.164;4.488;2023-01-25T05:40:34;105.95;;;60.05;;
40745;SDS011;26454;51.164;4.488;2023-01-25T05:43:00;115.57;;;62.17;;
40745;SDS011;26454;51.164;4.488;2023-01-25T05:45:26;119.35;;;64.22;;
40745;SDS011;26454;51.164;4.488;2023-01-25T05:47:55;112.78;;;60.25;;
40745;SDS011;26454;51.164;4.488;2023-01-25T05:50:22;117.93;;;65.57;;
40745;SDS011;26454;51.164;4.488;2023-01-25T05:52:48;123.72;;;63.17;;
40745;SDS011;26454;51.164;4.488;2023-01-25T05:55:14;114.57;;;63.40;;
40745;SDS011;26454;51.164;4.488;2023-01-25T05:57:42;110.75;;;61.10;;
40745;SDS011;26454;51.164;4.488;2023-01-25T06:00:08;112.95;;;61.72;;
40745;SDS011;26454;51.164;4.488;2023-01-25T06:02:34;114.10;;;63.08;;
40745;SDS011;26454;51.164;4.488;2023-01-25T06:05:01;115.32;;;62.75;;
40745;SDS011;26454;51.164;4.488;2023-01-25T06:07:27;109.05;;;61.65;;
40745;SDS011;26454;51.164;4.488;2023-01-25T06:09:53;120.03;;;63.33;;
40745;SDS011;26454;51.164;4.488;2023-01-25T06:12:20;110.18;;;58.00;;
40745;SDS011;26454;51.164;4.488;2023-01-25T06:14:46;114.60;;;60.47;;
40745;SDS011;26454;51.164;4.488;2023-01-25T06:17:12;120.97;;;62.58;;
40745;SDS011;26454;51.164;4.488;2023-01-25T06:19:39;114.57;;;60.28;;
40745;SDS011;26454;51.164;4.488;2023-01-25T06:22:05;122.85;;;65.82;;
40745;SDS011;26454;51.164;4.488;2023-01-25T06:24:33;121.60;;;64.20;;
40745;SDS011;26454;51.164;4.488;2023-01-25T06:26:59;113.03;;;58.60;;
40745;SDS011;26454;51.164;4.488;2023-01-25T06:29:25;114.93;;;61.95;;
40745;SDS011;26454;51.164;4.488;2023-01-25T06:31:51;123.45;;;63.10;;
40745;SDS011;26454;51.164;4.488;2023-01-25T06:34:19;124.90;;;67.20;;
40745;SDS011;26454;51.164;4.488;2023-01-25T06:36:45;119.80;;;64.22;;
40745;SDS011;26454;51.164;4.488;2023-01-25T06:39:12;118.05;;;63.80;;
40745;SDS011;26454;51.164;4.488;2023-01-25T06:41:38;112.35;;;59.58;;
40745;SDS011;26454;51.164;4.488;2023-01-25T06:44:04;115.72;;;60.30;;
40745;SDS011;26454;51.164;4.488;2023-01-25T06:46:31;111.47;;;57.55;;
40745;SDS011;26454;51.164;4.488;2023-01-25T06:48:57;108.22;;;57.80;;
40745;SDS011;26454;51.164;4.488;2023-01-25T06:51:23;111.47;;;57.60;;
40745;SDS011;26454;51.164;4.488;2023-01-25T06:53:49;111.30;;;58.03;;
40745;SDS011;26454;51.164;4.488;2023-01-25T06:56:18;105.60;;;57.80;;
40745;SDS011;26454;51.164;4.488;2023-01-25T07:01:13;114.35;;;59.40;;
40745;SDS011;26454;51.164;4.488;2023-01-25T07:03:39;112.10;;;60.17;;
40745;SDS011;26454;51.164;4.488;2023-01-25T07:06:07;107.53;;;56.47;;
40745;SDS011;26454;51.164;4.488;2023-01-25T07:08:33;108.38;;;56.83;;
40745;SDS011;26454;51.164;4.488;2023-01-25T07:11:00;116.68;;;62.28;;
40745;SDS011;26454;51.164;4.488;2023-01-25T07:13:27;110.07;;;59.60;;
40745;SDS011;26454;51.164;4.488;2023-01-25T07:15:55;108.95;;;60.80;;
40745;SDS011;26454;51.164;4.488;2023-01-25T07:18:22;111.50;;;59.08;;
40745;SDS011;26454;51.164;4.488;2023-01-25T07:20:48;110.10;;;57.75;;
40745;SDS011;26454;51.164;4.488;2023-01-25T07:23:14;105.28;;;57.28;;
40745;SDS011;26454;51.164;4.488;2023-01-25T07:25:42;106.00;;;55.65;;
40745;SDS011;26454;51.164;4.488;2023-01-25T07:28:09;102.97;;;57.60;;
40745;SDS011;26454;51.164;4.488;2023-01-25T07:30:38;106.95;;;59.05;;
40745;SDS011;26454;51.164;4.488;2023-01-25T07:33:05;109.40;;;59.00;;
40745;SDS011;26454;51.164;4.488;2023-01-25T07:35:32;107.80;;;57.28;;
40745;SDS011;26454;51.164;4.488;2023-01-25T07:38:02;105.38;;;57.78;;
40745;SDS011;26454;51.164;4.488;2023-01-25T07:40:28;109.03;;;56.78;;
40745;SDS011;26454;51.164;4.488;2023-01-25T07:42:54;115.70;;;62.30;;
40745;SDS011;26454;51.164;4.488;2023-01-25T07:45:20;111.47;;;59.25;;
40745;SDS011;26454;51.164;4.488;2023-01-25T07:47:52;110.50;;;58.22;;
40745;SDS011;26454;51.164;4.488;2023-01-25T07:50:22;111.22;;;57.58;;
40745;SDS011;26454;51.164;4.488;2023-01-25T07:52:48;102.90;;;56.97;;
40745;SDS011;26454;51.164;4.488;2023-01-25T07:55:14;110.90;;;59.47;;
40745;SDS011;26454;51.164;4.488;2023-01-25T07:57:41;115.22;;;61.00;;
40745;SDS011;26454;51.164;4.488;2023-01-25T08:00:07;114.13;;;60.35;;
40745;SDS011;26454;51.164;4.488;2023-01-25T08:02:34;106.45;;;57.17;;
40745;SDS011;26454;51.164;4.488;2023-01-25T08:05:01;112.68;;;60.03;;
40745;SDS011;26454;51.164;4.488;2023-01-25T08:07:30;113.10;;;59.57;;
40745;SDS011;26454;51.164;4.488;2023-01-25T08:09:56;114.25;;;59.65;;
40745;SDS011;26454;51.164;4.488;2023-01-25T08:12:22;109.38;;;57.58;;
40745;SDS011;26454;51.164;4.488;2023-01-25T08:14:51;114.28;;;62.80;;
40745;SDS011;26454;51.164;4.488;2023-01-25T08:17:18;116.07;;;61.58;;
40745;SDS011;26454;51.164;4.488;2023-01-25T08:19:44;114.90;;;60.63;;
40745;SDS011;26454;51.164;4.488;2023-01-25T08:22:10;114.53;;;59.88;;
40745;SDS011;26454;51.164;4.488;2023-01-25T08:24:37;110.03;;;58.78;;
40745;SDS011;26454;51.164;4.488;2023-01-25T08:27:03;112.45;;;60.80;;
40745;SDS011;26454;51.164;4.488;2023-01-25T08:29:29;115.38;;;61.78;;
40745;SDS011;26454;51.164;4.488;2023-01-25T08:31:56;113.53;;;62.25;;
40745;SDS011;26454;51.164;4.488;2023-01-25T08:34:22;113.35;;;57.92;;
40745;SDS011;26454;51.164;4.488;2023-01-25T08:36:50;115.03;;;60.70;;
40745;SDS011;26454;51.164;4.488;2023-01-25T08:39:17;111.43;;;57.67;;
40745;SDS011;26454;51.164;4.488;2023-01-25T08:41:43;116.43;;;60.72;;
40745;SDS011;26454;51.164;4.488;2023-01-25T08:44:09;106.70;;;55.63;;
40745;SDS011;26454;51.164;4.488;2023-01-25T08:46:37;113.05;;;58.63;;
40745;SDS011;26454;51.164;4.488;2023-01-25T08:49:03;108.57;;;58.22;;
40745;SDS011;26454;51.164;4.488;2023-01-25T08:51:37;106.82;;;58.35;;
40745;SDS011;26454;51.164;4.488;2023-01-25T08:54:05;108.28;;;57.10;;
40745;SDS011;26454;51.164;4.488;2023-01-25T08:56:37;110.25;;;58.90;;
40745;SDS011;26454;51.164;4.488;2023-01-25T08:59:04;111.15;;;59.30;;
40745;SDS011;26454;51.164;4.488;2023-01-25T09:01:30;108.63;;;59.78;;
40745;SDS011;26454;51.164;4.488;2023-01-25T09:03:56;107.00;;;56.50;;
40745;SDS011;26454;51.164;4.488;2023-01-25T09:06:22;113.00;;;60.40;;
40745;SDS011;26454;51.164;4.488;2023-01-25T09:08:50;115.07;;;62.88;;
40745;SDS011;26454;51.164;4.488;2023-01-25T09:11:17;115.57;;;58.97;;
40745;SDS011;26454;51.164;4.488;2023-01-25T09:13:43;117.60;;;62.13;;
40745;SDS011;26454;51.164;4.488;2023-01-25T09:16:11;111.07;;;58.85;;
40745;SDS011;26454;51.164;4.488;2023-01-25T09:21:31;125.47;;;67.75;;
40745;SDS011;26454;51.164;4.488;2023-01-25T09:23:58;118.45;;;61.67;;
40745;SDS011;26454;51.164;4.488;2023-01-25T09:26:37;138.95;;;63.80;;
40745;SDS011;26454;51.164;4.488;2023-01-25T09:29:10;120.35;;;65.45;;
40745;SDS011;26454;51.164;4.488;2023-01-25T09:31:39;113.72;;;61.42;;
40745;SDS011;26454;51.164;4.488;2023-01-25T09:34:08;123.78;;;58.97;;
40745;SDS011;26454;51.164;4.488;2023-01-25T09:36:35;106.30;;;55.28;;
40745;SDS011;26454;51.164;4.488;2023-01-25T09:39:01;122.53;;;60.63;;
40745;SDS011;26454;51.164;4.488;2023-01-25T09:44:09;112.50;;;57.95;;
40745;SDS011;26454;51.164;4.488;2023-01-25T09:46:40;111.13;;;56.28;;
40745;SDS011;26454;51.164;4.488;2023-01-25T09:51:48;109.93;;;56.53;;
40745;SDS011;26454;51.164;4.488;2023-01-25T09:54:17;108.03;;;58.72;;
40745;SDS011;26454;51.164;4.488;2023-01-25T09:56:46;110.05;;;57.08;;
40745;SDS011;26454;51.164;4.488;2023-01-25T09:59:14;105.32;;;55.83;;
40745;SDS011;26454;51.164;4.488;2023-01-25T10:01:45;105.78;;;54.50;;
40745;SDS011;26454;51.164;4.488;2023-01-25T10:04:15;116.60;;;59.33;;
40745;SDS011;26454;51.164;4.488;2023-01-25T10:06:43;107.97;;;57.83;;
40745;SDS011;26454;51.164;4.488;2023-01-25T10:09:18;116.28;;;60.15;;
40745;SDS011;26454;51.164;4.488;2023-01-25T10:11:45;112.00;;;57.53;;
40745;SDS011;26454;51.164;4.488;2023-01-25T10:14:15;113.65;;;60.47;;
40745;SDS011;26454;51.164;4.488;2023-01-25T10:19:30;108.68;;;57.78;;
40745;SDS011;26454;51.164;4.488;2023-01-25T10:22:04;110.38;;;57.55;;
40745;SDS011;26454;51.164;4.488;2023-01-25T10:24:37;117.10;;;60.05;;
40745;SDS011;26454;51.164;4.488;2023-01-25T10:27:13;127.82;;;62.95;;
40745;SDS011;26454;51.164;4.488;2023-01-25T10:29:45;116.65;;;60.63;;
40745;SDS011;26454;51.164;4.488;2023-01-25T10:32:18;116.13;;;60.78;;
40745;SDS011;26454;51.164;4.488;2023-01-25T10:34:45;112.30;;;57.53;;
40745;SDS011;26454;51.164;4.488;2023-01-25T10:37:13;119.15;;;65.18;;
40745;SDS011;26454;51.164;4.488;2023-01-25T10:39:42;114.63;;;59.15;;
40745;SDS011;26454;51.164;4.488;2023-01-25T10:42:12;119.03;;;61.53;;
40745;SDS011;26454;51.164;4.488;2023-01-25T10:44:40;117.20;;;61.35;;
40745;SDS011;26454;51.164;4.488;2023-01-25T10:47:20;114.85;;;58.55;;
40745;SDS011;26454;51.164;4.488;2023-01-25T10:49:52;116.50;;;59.20;;
40745;SDS011;26454;51.164;4.488;2023-01-25T10:52:20;119.28;;;60.78;;
40745;SDS011;26454;51.164;4.488;2023-01-25T10:54:47;111.97;;;61.67;;
40745;SDS011;26454;51.164;4.488;2023-01-25T10:57:16;112.63;;;60.92;;
40745;SDS011;26454;51.164;4.488;2023-01-25T10:59:45;122.18;;;62.42;;
40745;SDS011;26454;51.164;4.488;2023-01-25T11:04:47;124.78;;;64.93;;
40745;SDS011;26454;51.164;4.488;2023-01-25T11:09:49;123.15;;;62.55;;
40745;SDS011;26454;51.164;4.488;2023-01-25T11:12:16;122.18;;;61.08;;
40745;SDS011;26454;51.164;4.488;2023-01-25T11:14:43;128.05;;;63.15;;
40745;SDS011;26454;51.164;4.488;2023-01-25T11:17:20;121.40;;;60.92;;
40745;SDS011;26454;51.164;4.488;2023-01-25T11:19:47;131.00;;;65.40;;
40745;SDS011;26454;51.164;4.488;2023-01-25T11:22:21;122.15;;;63.70;;
40745;SDS011;26454;51.164;4.488;2023-01-25T11:24:48;122.55;;;62.95;;
40745;SDS011;26454;51.164;4.488;2023-01-25T11:27:19;128.55;;;61.92;;
40745;SDS011;26454;51.164;4.488;2023-01-25T11:32:21;121.28;;;60.40;;
40745;SDS011;26454;51.164;4.488;2023-01-25T11:34:49;119.72;;;59.15;;
40745;SDS011;26454;51.164;4.488;2023-01-25T11:39:58;129.82;;;66.57;;
40745;SDS011;26454;51.164;4.488;2023-01-25T11:45:09;126.35;;;59.35;;
40745;SDS011;26454;51.164;4.488;2023-01-25T11:55:39;120.18;;;60.42;;
40745;SDS011;26454;51.164;4.488;2023-01-25T12:00:47;131.02;;;62.40;;
40745;SDS011;26454;51.164;4.488;2023-01-25T12:03:32;134.02;;;64.65;;
40745;SDS011;26454;51.164;4.488;2023-01-25T12:09:07;143.02;;;66.35;;
40745;SDS011;26454;51.164;4.488;2023-01-25T12:11:30;126.97;;;62.70;;
40745;SDS011;26454;51.164;4.488;2023-01-25T12:14:06;127.80;;;63.47;;
40745;SDS011;26454;51.164;4.488;2023-01-25T12:16:40;129.77;;;62.35;;
40745;SDS011;26454;51.164;4.488;2023-01-25T12:19:15;121.97;;;60.45;;
40745;SDS011;26454;51.164;4.488;2023-01-25T12:21:51;130.48;;;62.72;;
40745;SDS011;26454;51.164;4.488;2023-01-25T12:24:35;124.80;;;61.13;;
40745;SDS011;26454;51.164;4.488;2023-01-25T12:27:18;131.80;;;63.50;;
40745;SDS011;26454;51.164;4.488;2023-01-25T12:29:51;118.47;;;59.65;;
40745;SDS011;26454;51.164;4.488;2023-01-25T12:32:29;131.52;;;64.03;;
40745;SDS011;26454;51.164;4.488;2023-01-25T12:35:01;129.63;;;60.97;;
40745;SDS011;26454;51.164;4.488;2023-01-25T12:37:33;125.15;;;62.22;;
40745;SDS011;26454;51.164;4.488;2023-01-25T12:40:02;130.68;;;63.90;;
40745;SDS011;26454;51.164;4.488;2023-01-25T12:42:37;123.07;;;59.50;;
40745;SDS011;26454;51.164;4.488;2023-01-25T12:45:13;120.57;;;60.65;;
40745;SDS011;26454;51.164;4.488;2023-01-25T12:47:43;113.80;;;58.08;;
40745;SDS011;26454;51.164;4.488;2023-01-25T12:52:50;122.00;;;59.00;;
40745;SDS011;26454;51.164;4.488;2023-01-25T12:55:17;124.05;;;62.30;;
40745;SDS011;26454;51.164;4.488;2023-01-25T12:57:47;116.45;;;61.28;;
40745;SDS011;26454;51.164;4.488;2023-01-25T13:03:07;127.25;;;63.67;;
40745;SDS011;26454;51.164;4.488;2023-01-25T13:05:38;128.30;;;62.28;;
40745;SDS011;26454;51.164;4.488;2023-01-25T13:10:43;115.70;;;59.30;;
40745;SDS011;26454;51.164;4.488;2023-01-25T13:15:46;111.18;;;57.25;;
40745;SDS011;26454;51.164;4.488;2023-01-25T13:20:49;121.63;;;59.70;;
40745;SDS011;26454;51.164;4.488;2023-01-25T13:25:52;121.15;;;58.90;;
40745;SDS011;26454;51.164;4.488;2023-01-25T13:28:40;114.32;;;59.40;;
40745;SDS011;26454;51.164;4.488;2023-01-25T13:31:25;125.88;;;61.30;;
40745;SDS011;26454;51.164;4.488;2023-01-25T13:33:56;117.18;;;59.03;;
40745;SDS011;26454;51.164;4.488;2023-01-25T13:39:00;113.25;;;59.30;;
40745;SDS011;26454;51.164;4.488;2023-01-25T13:41:26;100.20;;;53.10;;
40745;SDS011;26454;51.164;4.488;2023-01-25T13:44:01;108.78;;;56.42;;
40745;SDS011;26454;51.164;4.488;2023-01-25T13:46:33;112.47;;;55.90;;
40745;SDS011;26454;51.164;4.488;2023-01-25T13:49:00;105.78;;;55.28;;
40745;SDS011;26454;51.164;4.488;2023-01-25T13:51:27;118.00;;;58.33;;
40745;SDS011;26454;51.164;4.488;2023-01-25T13:53:58;106.20;;;53.75;;
40745;SDS011;26454;51.164;4.488;2023-01-25T13:56:27;116.38;;;58.95;;
40745;SDS011;26454;51.164;4.488;2023-01-25T13:58:54;106.95;;;56.90;;
40745;SDS011;26454;51.164;4.488;2023-01-25T14:01:20;115.47;;;60.42;;
40745;SDS011;26454;51.164;4.488;2023-01-25T14:03:49;107.05;;;54.85;;
40745;SDS011;26454;51.164;4.488;2023-01-25T14:06:17;103.35;;;54.40;;
40745;SDS011;26454;51.164;4.488;2023-01-25T14:08:44;113.75;;;56.83;;
40745;SDS011;26454;51.164;4.488;2023-01-25T14:11:19;116.00;;;58.53;;
40745;SDS011;26454;51.164;4.488;2023-01-25T14:13:54;104.55;;;55.15;;
40745;SDS011;26454;51.164;4.488;2023-01-25T14:16:20;110.50;;;52.42;;
40745;SDS011;26454;51.164;4.488;2023-01-25T14:18:46;101.70;;;55.17;;
40745;SDS011;26454;51.164;4.488;2023-01-25T14:21:15;121.97;;;58.92;;
40745;SDS011;26454;51.164;4.488;2023-01-25T14:23:41;115.53;;;57.38;;
40745;SDS011;26454;51.164;4.488;2023-01-25T14:28:44;110.43;;;59.88;;
40745;SDS011;26454;51.164;4.488;2023-01-25T14:31:16;112.57;;;58.22;;
40745;SDS011;26454;51.164;4.488;2023-01-25T14:33:43;107.80;;;55.20;;
40745;SDS011;26454;51.164;4.488;2023-01-25T14:36:12;116.38;;;60.58;;
40745;SDS011;26454;51.164;4.488;2023-01-25T14:38:40;109.55;;;56.03;;
40745;SDS011;26454;51.164;4.488;2023-01-25T14:41:11;113.78;;;58.90;;
40745;SDS011;26454;51.164;4.488;2023-01-25T14:43:38;110.00;;;56.70;;
40745;SDS011;26454;51.164;4.488;2023-01-25T14:48:43;117.30;;;58.80;;
40745;SDS011;26454;51.164;4.488;2023-01-25T14:51:14;119.07;;;58.10;;
40745;SDS011;26454;51.164;4.488;2023-01-25T14:53:44;117.45;;;56.38;;
40745;SDS011;26454;51.164;4.488;2023-01-25T14:56:16;119.03;;;56.65;;
40745;SDS011;26454;51.164;4.488;2023-01-25T14:58:44;113.72;;;58.53;;
40745;SDS011;26454;51.164;4.488;2023-01-25T15:01:10;126.93;;;57.42;;
40745;SDS011;26454;51.164;4.488;2023-01-25T15:03:46;120.75;;;59.05;;
40745;SDS011;26454;51.164;4.488;2023-01-25T15:06:13;122.63;;;59.35;;
40745;SDS011;26454;51.164;4.488;2023-01-25T15:08:39;116.68;;;57.63;;
40745;SDS011;26454;51.164;4.488;2023-01-25T15:11:20;121.60;;;57.67;;
40745;SDS011;26454;51.164;4.488;2023-01-25T15:14:01;117.20;;;53.92;;
40745;SDS011;26454;51.164;4.488;2023-01-25T15:16:34;121.43;;;61.80;;
40745;SDS011;26454;51.164;4.488;2023-01-25T15:19:00;122.05;;;57.75;;
40745;SDS011;26454;51.164;4.488;2023-01-25T15:21:27;116.45;;;57.38;;
40745;SDS011;26454;51.164;4.488;2023-01-25T15:23:55;115.55;;;56.10;;
40745;SDS011;26454;51.164;4.488;2023-01-25T15:26:23;122.60;;;58.10;;